sensor_id;sensor_type;location;lat;lon;timestamp;pressure;altitude;pressure_sealevel;temperature;humidity
75767;BME280;64378;55.596;13.014;2023-04-06T00:00:42;101958.91;;;21.22;31.43
75767;BME280;64378;55.596;13.014;2023-04-06T00:03:08;101958.09;;;21.22;31.74
75767;BME280;64378;55.596;13.014;2023-04-06T00:05:33;101954.50;;;21.21;31.55
75767;BME280;64378;55.596;13.014;2023-04-06T00:07:59;101959.16;;;21.21;31.55
75767;BME280;64378;55.596;13.014;2023-04-06T00:10:24;101966.31;;;21.22;31.50
75767;BME280;64378;55.596;13.014;2023-04-06T00:12:50;101963.78;;;21.20;31.50
75767;BME280;64378;55.596;13.014;2023-04-06T00:15:15;101958.31;;;21.20;31.52
75767;BME280;64378;55.596;13.014;2023-04-06T00:17:41;101961.91;;;21.21;31.59
75767;BME280;64378;55.596;13.014;2023-04-06T00:20:07;101957.50;;;21.20;31.36
75767;BME280;64378;55.596;13.014;2023-04-06T00:22:33;101962.72;;;21.21;31.63
75767;BME280;64378;55.596;13.014;2023-04-06T00:24:59;101959.16;;;21.21;31.43
75767;BME280;64378;55.596;13.014;2023-04-06T00:27:24;101961.06;;;21.20;31.64
75767;BME280;64378;55.596;13.014;2023-04-06T00:29:50;101963.56;;;21.22;31.75
75767;BME280;64378;55.596;13.014;2023-04-06T00:32:15;101959.97;;;21.21;31.79
75767;BME280;64378;55.596;13.014;2023-04-06T00:34:41;101960.22;;;21.20;31.76
75767;BME280;64378;55.596;13.014;2023-04-06T00:37:06;101956.41;;;21.21;31.79
75767;BME280;64378;55.596;13.014;2023-04-06T00:39:31;101964.06;;;21.19;31.87
75767;BME280;64378;55.596;13.014;2023-04-06T00:41:57;101967.41;;;21.21;31.76
75767;BME280;64378;55.596;13.014;2023-04-06T00:44:23;101961.31;;;21.19;31.65
75767;BME280;64378;55.596;13.014;2023-04-06T00:46:49;101962.13;;;21.19;31.62
75767;BME280;64378;55.596;13.014;2023-04-06T00:49:15;101968.47;;;21.20;31.69
75767;BME280;64378;55.596;13.014;2023-04-06T00:51:40;101964.06;;;21.19;31.69
75767;BME280;64378;55.596;13.014;2023-04-06T00:54:05;101971.22;;;21.20;31.77
75767;BME280;64378;55.596;13.014;2023-04-06T00:56:31;101967.63;;;21.19;31.76
75767;BME280;64378;55.596;13.014;2023-04-06T00:58:57;101966.81;;;21.19;31.65
75767;BME280;64378;55.596;13.014;2023-04-06T01:01:23;101967.63;;;21.19;31.94
75767;BME280;64378;55.596;13.014;2023-04-06T01:03:52;101963.47;;;21.17;31.70
75767;BME280;64378;55.596;13.014;2023-04-06T01:06:17;101961.53;;;21.17;31.86
75767;BME280;64378;55.596;13.014;2023-04-06T01:08:43;101965.94;;;21.18;31.75
75767;BME280;64378;55.596;13.014;2023-04-06T01:11:08;101960.47;;;21.18;31.92
75767;BME280;64378;55.596;13.014;2023-04-06T01:13:34;101960.72;;;21.17;31.91
75767;BME280;64378;55.596;13.014;2023-04-06T01:15:59;101960.72;;;21.17;31.84
75767;BME280;64378;55.596;13.014;2023-04-06T01:18:26;101960.72;;;21.17;31.91
75767;BME280;64378;55.596;13.014;2023-04-06T01:20:52;101963.69;;;21.15;31.80
75767;BME280;64378;55.596;13.014;2023-04-06T01:23:17;101959.31;;;21.14;32.04
75767;BME280;64378;55.596;13.014;2023-04-06T01:25:43;101957.38;;;21.15;31.99
75767;BME280;64378;55.596;13.014;2023-04-06T01:28:08;101959.88;;;21.16;32.01
75767;BME280;64378;55.596;13.014;2023-04-06T01:30:33;101963.69;;;21.15;32.11
75767;BME280;64378;55.596;13.014;2023-04-06T01:32:59;101960.38;;;21.13;32.01
75767;BME280;64378;55.596;13.014;2023-04-06T01:35:26;101960.94;;;21.15;32.09
75767;BME280;64378;55.596;13.014;2023-04-06T01:37:51;101962.88;;;21.15;32.25
75767;BME280;64378;55.596;13.014;2023-04-06T01:40:16;101960.38;;;21.13;32.15
75767;BME280;64378;55.596;13.014;2023-04-06T01:42:42;101968.34;;;21.15;32.27
75767;BME280;64378;55.596;13.014;2023-04-06T01:45:07;101959.53;;;21.13;32.15
75767;BME280;64378;55.596;13.014;2023-04-06T01:47:33;101971.09;;;21.15;32.43
75767;BME280;64378;55.596;13.014;2023-04-06T01:49:58;101971.09;;;21.15;32.35
75767;BME280;64378;55.596;13.014;2023-04-06T01:52:24;101968.63;;;21.13;32.44
75767;BME280;64378;55.596;13.014;2023-04-06T01:54:49;101975.78;;;21.14;32.47
75767;BME280;64378;55.596;13.014;2023-04-06T01:57:14;101974.09;;;21.13;32.47
75767;BME280;64378;55.596;13.014;2023-04-06T01:59:40;101974.09;;;21.13;32.33
75767;BME280;64378;55.596;13.014;2023-04-06T02:02:05;101965.00;;;21.13;32.37
75767;BME280;64378;55.596;13.014;2023-04-06T02:04:31;101971.09;;;21.15;32.54
75767;BME280;64378;55.596;13.014;2023-04-06T02:06:56;101971.34;;;21.13;32.46
75767;BME280;64378;55.596;13.014;2023-04-06T02:09:21;101971.34;;;21.13;32.27
75767;BME280;64378;55.596;13.014;2023-04-06T02:11:47;101964.19;;;21.12;32.42
75767;BME280;64378;55.596;13.014;2023-04-06T02:14:12;101971.56;;;21.12;32.48
75767;BME280;64378;55.596;13.014;2023-04-06T02:16:38;101974.31;;;21.12;32.62
75767;BME280;64378;55.596;13.014;2023-04-06T02:19:03;101970.50;;;21.13;32.38
75767;BME280;64378;55.596;13.014;2023-04-06T02:21:28;101985.09;;;21.13;32.24
75767;BME280;64378;55.596;13.014;2023-04-06T02:23:54;101975.19;;;21.12;32.25
75767;BME280;64378;55.596;13.014;2023-04-06T02:26:19;101979.00;;;21.11;32.31
75767;BME280;64378;55.596;13.014;2023-04-06T02:28:45;101979.00;;;21.11;32.34
75767;BME280;64378;55.596;13.014;2023-04-06T02:31:11;101981.75;;;21.11;32.36
75767;BME280;64378;55.596;13.014;2023-04-06T02:33:36;101977.91;;;21.12;32.42
75767;BME280;64378;55.596;13.014;2023-04-06T02:36:02;101976.00;;;21.13;32.32
75767;BME280;64378;55.596;13.014;2023-04-06T02:38:27;101981.16;;;21.09;32.42
75767;BME280;64378;55.596;13.014;2023-04-06T02:40:53;101981.97;;;21.10;32.45
75767;BME280;64378;55.596;13.014;2023-04-06T02:43:22;101977.06;;;21.12;32.42
75767;BME280;64378;55.596;13.014;2023-04-06T02:45:47;101981.75;;;21.11;32.21
75767;BME280;64378;55.596;13.014;2023-04-06T02:48:13;101979.22;;;21.10;32.38
75767;BME280;64378;55.596;13.014;2023-04-06T02:50:38;101980.88;;;21.11;32.40
75767;BME280;64378;55.596;13.014;2023-04-06T02:53:04;101981.16;;;21.09;32.55
75767;BME280;64378;55.596;13.014;2023-04-06T02:55:29;101981.75;;;21.11;32.56
75767;BME280;64378;55.596;13.014;2023-04-06T02:57:55;101986.63;;;21.09;32.45
75767;BME280;64378;55.596;13.014;2023-04-06T03:00:20;101986.63;;;21.09;32.63
75767;BME280;64378;55.596;13.014;2023-04-06T03:02:46;101983.88;;;21.09;32.55
75767;BME280;64378;55.596;13.014;2023-04-06T03:05:11;101984.72;;;21.10;32.37
75767;BME280;64378;55.596;13.014;2023-04-06T03:07:36;101992.13;;;21.09;32.55
75767;BME280;64378;55.596;13.014;2023-04-06T03:10:02;101992.13;;;21.09;32.31
75767;BME280;64378;55.596;13.014;2023-04-06T03:12:27;101993.19;;;21.08;32.27
75767;BME280;64378;55.596;13.014;2023-04-06T03:14:53;101995.94;;;21.08;32.46
75767;BME280;64378;55.596;13.014;2023-04-06T03:17:18;101990.94;;;21.05;32.60
75767;BME280;64378;55.596;13.014;2023-04-06T03:19:43;101992.59;;;21.06;32.67
75767;BME280;64378;55.596;13.014;2023-04-06T03:22:09;101987.72;;;21.08;32.43
75767;BME280;64378;55.596;13.014;2023-04-06T03:24:34;101997.84;;;21.08;32.31
75767;BME280;64378;55.596;13.014;2023-04-06T03:27:00;102001.66;;;21.07;32.45
75767;BME280;64378;55.596;13.014;2023-04-06T03:29:25;101998.56;;;21.03;32.43
75767;BME280;64378;55.596;13.014;2023-04-06T03:31:52;102003.56;;;21.06;32.10
75767;BME280;64378;55.596;13.014;2023-04-06T03:34:17;102005.72;;;21.04;32.33
75767;BME280;64378;55.596;13.014;2023-04-06T03:36:43;102018.38;;;21.05;32.34
75767;BME280;64378;55.596;13.014;2023-04-06T03:39:08;102022.19;;;21.04;32.09
75767;BME280;64378;55.596;13.014;2023-04-06T03:41:33;102017.53;;;21.05;32.46
75767;BME280;64378;55.596;13.014;2023-04-06T03:43:59;102029.34;;;21.05;32.21
75767;BME280;64378;55.596;13.014;2023-04-06T03:46:24;102027.69;;;21.04;32.26
75767;BME280;64378;55.596;13.014;2023-04-06T03:48:50;102027.91;;;21.03;32.11
75767;BME280;64378;55.596;13.014;2023-04-06T03:51:15;102030.41;;;21.04;32.09
75767;BME280;64378;55.596;13.014;2023-04-06T03:53:40;102024.09;;;21.04;31.96
75767;BME280;64378;55.596;13.014;2023-04-06T03:56:06;102018.84;;;21.02;31.98
75767;BME280;64378;55.596;13.014;2023-04-06T03:58:31;102023.75;;;21.00;31.97
75767;BME280;64378;55.596;13.014;2023-04-06T04:00:57;102026.47;;;21.00;32.04
75767;BME280;64378;55.596;13.014;2023-04-06T04:03:22;102027.91;;;21.03;32.16
75767;BME280;64378;55.596;13.014;2023-04-06T04:05:49;102035.31;;;21.02;31.91
75767;BME280;64378;55.596;13.014;2023-04-06T04:08:15;102030.31;;;20.99;31.93
75767;BME280;64378;55.596;13.014;2023-04-06T04:10:41;102037.25;;;21.02;31.87
75767;BME280;64378;55.596;13.014;2023-04-06T04:13:06;102036.38;;;21.01;31.77
75767;BME280;64378;55.596;13.014;2023-04-06T04:15:31;102039.13;;;21.01;31.84
75767;BME280;64378;55.596;13.014;2023-04-06T04:17:57;102037.47;;;21.00;31.95
75767;BME280;64378;55.596;13.014;2023-04-06T04:20:22;102048.44;;;21.00;31.75
75767;BME280;64378;55.596;13.014;2023-04-06T04:22:47;102044.03;;;20.99;31.56
75767;BME280;64378;55.596;13.014;2023-04-06T04:25:13;102048.44;;;21.00;31.93
75767;BME280;64378;55.596;13.014;2023-04-06T04:27:38;102044.03;;;20.99;31.65
75767;BME280;64378;55.596;13.014;2023-04-06T04:30:05;102050.38;;;21.00;32.02
75767;BME280;64378;55.596;13.014;2023-04-06T04:32:30;102047.84;;;20.98;31.72
75767;BME280;64378;55.596;13.014;2023-04-06T04:34:56;102051.44;;;20.99;31.44
75767;BME280;64378;55.596;13.014;2023-04-06T04:37:21;102056.91;;;20.99;31.62
75767;BME280;64378;55.596;13.014;2023-04-06T04:39:47;102066.22;;;20.98;31.80
75767;BME280;64378;55.596;13.014;2023-04-06T04:42:12;102067.03;;;20.98;31.63
75767;BME280;64378;55.596;13.014;2023-04-06T04:44:38;102061.56;;;20.98;31.71
75767;BME280;64378;55.596;13.014;2023-04-06T04:47:04;102064.31;;;20.98;31.74
75767;BME280;64378;55.596;13.014;2023-04-06T04:49:30;102061.81;;;20.97;31.70
75767;BME280;64378;55.596;13.014;2023-04-06T04:51:55;102064.56;;;20.97;31.45
75767;BME280;64378;55.596;13.014;2023-04-06T04:54:21;102068.13;;;20.97;31.74
75767;BME280;64378;55.596;13.014;2023-04-06T04:56:46;102070.88;;;20.97;31.73
75767;BME280;64378;55.596;13.014;2023-04-06T04:59:11;102071.72;;;20.98;32.04
75767;BME280;64378;55.596;13.014;2023-04-06T05:01:37;102076.34;;;20.97;31.55
75767;BME280;64378;55.596;13.014;2023-04-06T05:04:02;102079.09;;;20.97;31.68
75767;BME280;64378;55.596;13.014;2023-04-06T05:06:28;102078.03;;;20.98;31.56
75767;BME280;64378;55.596;13.014;2023-04-06T05:08:53;102079.09;;;20.97;31.77
75767;BME280;64378;55.596;13.014;2023-04-06T05:11:18;102078.03;;;20.98;31.49
75767;BME280;64378;55.596;13.014;2023-04-06T05:13:44;102081.63;;;20.99;31.57
75767;BME280;64378;55.596;13.014;2023-04-06T05:16:09;102081.63;;;20.99;31.45
75767;BME280;64378;55.596;13.014;2023-04-06T05:18:35;102087.09;;;20.99;31.56
75767;BME280;64378;55.596;13.014;2023-04-06T05:21:00;102087.09;;;20.99;31.75
75767;BME280;64378;55.596;13.014;2023-04-06T05:23:26;102093.41;;;20.99;31.56
75767;BME280;64378;55.596;13.014;2023-04-06T05:25:51;102094.00;;;21.01;31.60
75767;BME280;64378;55.596;13.014;2023-04-06T05:28:17;102097.09;;;21.05;31.62
75767;BME280;64378;55.596;13.014;2023-04-06T05:30:44;102097.72;;;21.07;31.34
75767;BME280;64378;55.596;13.014;2023-04-06T05:33:10;102091.75;;;21.10;31.63
75767;BME280;64378;55.596;13.014;2023-04-06T05:35:36;102091.28;;;21.13;31.47
75767;BME280;64378;55.596;13.014;2023-04-06T05:38:01;102097.09;;;21.16;31.17
75767;BME280;64378;55.596;13.014;2023-04-06T05:40:27;102086.50;;;21.20;31.23
75767;BME280;64378;55.596;13.014;2023-04-06T05:42:52;102098.69;;;21.24;31.25
75767;BME280;64378;55.596;13.014;2023-04-06T05:45:18;102090.19;;;21.25;31.14
75767;BME280;64378;55.596;13.014;2023-04-06T05:47:44;102101.50;;;21.29;31.10
75767;BME280;64378;55.596;13.014;2023-04-06T05:50:10;102101.63;;;21.34;30.62
75767;BME280;64378;55.596;13.014;2023-04-06T05:52:36;102098.41;;;21.37;30.62
75767;BME280;64378;55.596;13.014;2023-04-06T05:55:02;102095.19;;;21.40;30.39
75767;BME280;64378;55.596;13.014;2023-04-06T05:57:28;102104.84;;;21.42;30.32
75767;BME280;64378;55.596;13.014;2023-04-06T05:59:53;102096.38;;;21.44;30.26
75767;BME280;64378;55.596;13.014;2023-04-06T06:02:20;102098.88;;;21.45;30.09
75767;BME280;64378;55.596;13.014;2023-04-06T06:04:46;102102.22;;;21.47;30.25
75767;BME280;64378;55.596;13.014;2023-04-06T06:07:11;102107.50;;;21.49;30.34
75767;BME280;64378;55.596;13.014;2023-04-06T06:09:36;102112.50;;;21.52;30.50
75767;BME280;64378;55.596;13.014;2023-04-06T06:12:02;102105.09;;;21.52;30.58
75767;BME280;64378;55.596;13.014;2023-04-06T06:14:27;102110.31;;;21.54;30.70
75767;BME280;64378;55.596;13.014;2023-04-06T06:16:56;102108.75;;;21.58;30.61
75767;BME280;64378;55.596;13.014;2023-04-06T06:19:21;102110.25;;;21.60;30.63
75767;BME280;64378;55.596;13.014;2023-04-06T06:21:47;102110.59;;;21.64;30.61
75767;BME280;64378;55.596;13.014;2023-04-06T06:24:12;102108.69;;;21.64;30.50
75767;BME280;64378;55.596;13.014;2023-04-06T06:26:37;102110.94;;;21.67;30.39
75767;BME280;64378;55.596;13.014;2023-04-06T06:29:04;102120.63;;;21.70;30.14
75767;BME280;64378;55.596;13.014;2023-04-06T06:31:31;102115.94;;;21.70;30.00
75767;BME280;64378;55.596;13.014;2023-04-06T06:33:56;102116.78;;;21.71;30.14
75767;BME280;64378;55.596;13.014;2023-04-06T06:36:21;102123.97;;;21.72;30.05
75767;BME280;64378;55.596;13.014;2023-04-06T06:38:47;102123.47;;;21.75;29.85
75767;BME280;64378;55.596;13.014;2023-04-06T06:41:12;102116.06;;;21.75;29.92
75767;BME280;64378;55.596;13.014;2023-04-06T06:43:38;102113.09;;;21.77;30.09
75767;BME280;64378;55.596;13.014;2023-04-06T06:46:04;102123.00;;;21.78;30.09
75767;BME280;64378;55.596;13.014;2023-04-06T06:48:30;102114.25;;;21.81;29.93
75767;BME280;64378;55.596;13.014;2023-04-06T06:50:56;102115.69;;;21.83;29.99
75767;BME280;64378;55.596;13.014;2023-04-06T06:53:22;102122.38;;;21.87;29.97
75767;BME280;64378;55.596;13.014;2023-04-06T06:55:48;102124.63;;;21.90;30.17
75767;BME280;64378;55.596;13.014;2023-04-06T06:58:17;102121.88;;;21.90;30.21
75767;BME280;64378;55.596;13.014;2023-04-06T07:00:43;102129.41;;;21.94;30.21
75767;BME280;64378;55.596;13.014;2023-04-06T07:03:09;102130.81;;;21.97;30.39
75767;BME280;64378;55.596;13.014;2023-04-06T07:05:34;102133.91;;;22.00;29.97
75767;BME280;64378;55.596;13.014;2023-04-06T07:07:59;102131.78;;;22.02;29.71
75767;BME280;64378;55.596;13.014;2023-04-06T07:10:26;102131.25;;;22.05;29.88
75767;BME280;64378;55.596;13.014;2023-04-06T07:12:52;102134.59;;;22.07;29.69
75767;BME280;64378;55.596;13.014;2023-04-06T07:15:17;102133.50;;;22.08;29.69
75767;BME280;64378;55.596;13.014;2023-04-06T07:17:43;102134.97;;;22.11;29.69
75767;BME280;64378;55.596;13.014;2023-04-06T07:20:11;102134.69;;;22.12;29.53
75767;BME280;64378;55.596;13.014;2023-04-06T07:22:38;102133.13;;;22.16;29.86
75767;BME280;64378;55.596;13.014;2023-04-06T07:25:04;102129.66;;;22.21;29.45
75767;BME280;64378;55.596;13.014;2023-04-06T07:27:29;102125.09;;;22.26;29.57
75767;BME280;64378;55.596;13.014;2023-04-06T07:29:55;102129.00;;;22.30;29.42
75767;BME280;64378;55.596;13.014;2023-04-06T07:32:20;102131.88;;;22.35;29.71
75767;BME280;64378;55.596;13.014;2023-04-06T07:34:46;102135.59;;;22.41;29.47
75767;BME280;64378;55.596;13.014;2023-04-06T07:37:12;102130.16;;;22.46;29.41
75767;BME280;64378;55.596;13.014;2023-04-06T07:39:38;102134.94;;;22.50;29.40
75767;BME280;64378;55.596;13.014;2023-04-06T07:42:03;102132.28;;;22.55;29.43
75767;BME280;64378;55.596;13.014;2023-04-06T07:44:28;102137.63;;;22.62;29.45
75767;BME280;64378;55.596;13.014;2023-04-06T07:46:54;102132.22;;;22.67;29.21
75767;BME280;64378;55.596;13.014;2023-04-06T07:49:20;102134.44;;;22.70;29.18
75767;BME280;64378;55.596;13.014;2023-04-06T07:51:46;102129.31;;;22.73;29.02
75767;BME280;64378;55.596;13.014;2023-04-06T07:54:11;102135.13;;;22.77;28.67
75767;BME280;64378;55.596;13.014;2023-04-06T07:56:37;102141.00;;;22.80;28.62
75767;BME280;64378;55.596;13.014;2023-04-06T07:59:02;102140.72;;;22.82;28.70
75767;BME280;64378;55.596;13.014;2023-04-06T08:01:28;102145.97;;;22.83;28.26
75767;BME280;64378;55.596;13.014;2023-04-06T08:03:55;102139.38;;;22.84;27.99
75767;BME280;64378;55.596;13.014;2023-04-06T08:06:21;102149.09;;;22.87;28.06
75767;BME280;64378;55.596;13.014;2023-04-06T08:08:46;102139.47;;;22.89;28.17
75767;BME280;64378;55.596;13.014;2023-04-06T08:11:12;102151.06;;;22.91;27.66
75767;BME280;64378;55.596;13.014;2023-04-06T08:13:37;102158.56;;;22.96;27.77
75767;BME280;64378;55.596;13.014;2023-04-06T08:16:03;102147.56;;;22.96;27.82
75767;BME280;64378;55.596;13.014;2023-04-06T08:18:28;102154.25;;;22.99;27.45
75767;BME280;64378;55.596;13.014;2023-04-06T08:20:55;102147.41;;;23.02;27.24
75767;BME280;64378;55.596;13.014;2023-04-06T08:23:21;102151.59;;;23.04;27.41
75767;BME280;64378;55.596;13.014;2023-04-06T08:25:47;102153.00;;;23.07;27.38
75767;BME280;64378;55.596;13.014;2023-04-06T08:28:12;102150.03;;;23.08;27.13
75767;BME280;64378;55.596;13.014;2023-04-06T08:30:41;102147.59;;;23.12;27.30
75767;BME280;64378;55.596;13.014;2023-04-06T08:33:07;102149.84;;;23.15;27.11
75767;BME280;64378;55.596;13.014;2023-04-06T08:35:33;102143.25;;;23.16;27.29
75767;BME280;64378;55.596;13.014;2023-04-06T08:37:58;102149.09;;;23.19;27.62
75767;BME280;64378;55.596;13.014;2023-04-06T08:40:24;102141.69;;;23.20;27.55
75767;BME280;64378;55.596;13.014;2023-04-06T08:42:53;102153.28;;;23.22;27.41
75767;BME280;64378;55.596;13.014;2023-04-06T08:45:19;102141.19;;;23.23;27.85
75767;BME280;64378;55.596;13.014;2023-04-06T08:47:50;102144.25;;;23.26;27.76
75767;BME280;64378;55.596;13.014;2023-04-06T08:50:16;102155.63;;;23.30;27.70
75767;BME280;64378;55.596;13.014;2023-04-06T08:52:44;102150.13;;;23.30;27.59
75767;BME280;64378;55.596;13.014;2023-04-06T08:55:11;102149.59;;;23.33;27.54
75767;BME280;64378;55.596;13.014;2023-04-06T08:57:37;102166.69;;;23.35;27.90
75767;BME280;64378;55.596;13.014;2023-04-06T09:00:04;102160.09;;;23.36;28.35
75767;BME280;64378;55.596;13.014;2023-04-06T09:02:30;102154.34;;;23.37;27.74
75767;BME280;64378;55.596;13.014;2023-04-06T09:04:56;102152.19;;;23.39;27.62
75767;BME280;64378;55.596;13.014;2023-04-06T09:07:22;102154.66;;;23.41;27.60
75767;BME280;64378;55.596;13.014;2023-04-06T09:09:49;102147.25;;;23.41;27.66
75767;BME280;64378;55.596;13.014;2023-04-06T09:12:30;102145.63;;;23.45;27.65
75767;BME280;64378;55.596;13.014;2023-04-06T09:14:57;102153.09;;;23.45;27.92
75767;BME280;64378;55.596;13.014;2023-04-06T09:17:31;102148.16;;;23.47;28.12
75767;BME280;64378;55.596;13.014;2023-04-06T09:19:58;102149.81;;;23.48;28.14
75767;BME280;64378;55.596;13.014;2023-04-06T09:22:23;102152.59;;;23.48;28.25
75767;BME280;64378;55.596;13.014;2023-04-06T09:24:52;102153.97;;;23.50;27.96
75767;BME280;64378;55.596;13.014;2023-04-06T09:27:29;102153.16;;;23.50;28.30
75767;BME280;64378;55.596;13.014;2023-04-06T09:30:15;102146.81;;;23.49;28.17
75767;BME280;64378;55.596;13.014;2023-04-06T09:32:49;102155.91;;;23.50;27.95
75767;BME280;64378;55.596;13.014;2023-04-06T09:35:15;102150.13;;;23.51;28.02
75767;BME280;64378;55.596;13.014;2023-04-06T09:37:43;102147.38;;;23.51;27.93
75767;BME280;64378;55.596;13.014;2023-04-06T09:40:10;102157.59;;;23.51;28.41
75767;BME280;64378;55.596;13.014;2023-04-06T09:42:36;102150.13;;;23.51;28.25
75767;BME280;64378;55.596;13.014;2023-04-06T09:45:02;102148.47;;;23.50;28.30
75767;BME280;64378;55.596;13.014;2023-04-06T09:47:29;102147.66;;;23.50;27.98
75767;BME280;64378;55.596;13.014;2023-04-06T09:49:57;102153.97;;;23.50;28.05
75767;BME280;64378;55.596;13.014;2023-04-06T09:52:32;102151.22;;;23.50;28.04
75767;BME280;64378;55.596;13.014;2023-04-06T09:55:02;102148.75;;;23.49;28.24
75767;BME280;64378;55.596;13.014;2023-04-06T10:00:06;102147.66;;;23.50;28.40
75767;BME280;64378;55.596;13.014;2023-04-06T10:05:27;102150.41;;;23.50;28.48
75767;BME280;64378;55.596;13.014;2023-04-06T10:07:57;102146.81;;;23.49;28.69
75767;BME280;64378;55.596;13.014;2023-04-06T10:10:25;102148.97;;;23.47;28.74
75767;BME280;64378;55.596;13.014;2023-04-06T10:12:50;102147.88;;;23.48;28.89
75767;BME280;64378;55.596;13.014;2023-04-06T10:15:17;102157.25;;;23.47;28.74
75767;BME280;64378;55.596;13.014;2023-04-06T10:17:43;102152.25;;;23.44;28.94
75767;BME280;64378;55.596;13.014;2023-04-06T10:20:14;102149.50;;;23.44;28.97
75767;BME280;64378;55.596;13.014;2023-04-06T10:23:12;102150.34;;;23.45;28.79
75767;BME280;64378;55.596;13.014;2023-04-06T10:25:58;102144.22;;;23.43;28.94
75767;BME280;64378;55.596;13.014;2023-04-06T10:28:24;102143.66;;;23.41;29.05
75767;BME280;64378;55.596;13.014;2023-04-06T10:30:58;102142.56;;;23.42;28.90
75767;BME280;64378;55.596;13.014;2023-04-06T10:33:24;102147.25;;;23.41;28.92
75767;BME280;64378;55.596;13.014;2023-04-06T10:35:50;102154.66;;;23.41;28.78
75767;BME280;64378;55.596;13.014;2023-04-06T10:38:15;102150.50;;;23.38;28.79
75767;BME280;64378;55.596;13.014;2023-04-06T10:40:45;102149.66;;;23.38;28.75
75767;BME280;64378;55.596;13.014;2023-04-06T10:43:18;102149.66;;;23.38;28.83
75767;BME280;64378;55.596;13.014;2023-04-06T10:45:54;102153.78;;;23.35;28.98
75767;BME280;64378;55.596;13.014;2023-04-06T10:48:20;102160.38;;;23.34;28.97
75767;BME280;64378;55.596;13.014;2023-04-06T10:50:52;102154.00;;;23.34;28.85
75767;BME280;64378;55.596;13.014;2023-04-06T10:53:23;102147.69;;;23.33;29.10
75767;BME280;64378;55.596;13.014;2023-04-06T10:55:50;102150.66;;;23.32;29.07
75767;BME280;64378;55.596;13.014;2023-04-06T10:58:16;102151.78;;;23.31;28.92
75767;BME280;64378;55.596;13.014;2023-04-06T11:00:48;102153.09;;;23.28;28.92
75767;BME280;64378;55.596;13.014;2023-04-06T11:03:14;102151.34;;;23.22;29.16
75767;BME280;64378;55.596;13.014;2023-04-06T11:05:50;102158.38;;;23.13;29.42
75767;BME280;64378;55.596;13.014;2023-04-06T11:08:27;102151.44;;;23.11;29.55
75767;BME280;64378;55.596;13.014;2023-04-06T11:11:06;102149.69;;;23.05;29.76
75767;BME280;64378;55.596;13.014;2023-04-06T11:13:41;102149.09;;;23.03;29.88
75767;BME280;64378;55.596;13.014;2023-04-06T11:16:11;102150.41;;;23.00;29.55
75767;BME280;64378;55.596;13.014;2023-04-06T11:18:37;102145.97;;;22.99;29.65
75767;BME280;64378;55.596;13.014;2023-04-06T11:21:02;102145.16;;;22.99;28.93
75767;BME280;64378;55.596;13.014;2023-04-06T11:23:28;102144.81;;;22.96;28.80
75767;BME280;64378;55.596;13.014;2023-04-06T11:25:53;102137.41;;;22.96;28.99
75767;BME280;64378;55.596;13.014;2023-04-06T11:28:19;102142.31;;;22.94;29.65
75767;BME280;64378;55.596;13.014;2023-04-06T11:30:45;102129.63;;;22.93;29.60
75767;BME280;64378;55.596;13.014;2023-04-06T11:33:20;102144.81;;;22.96;29.49
75767;BME280;64378;55.596;13.014;2023-04-06T11:35:46;102140.97;;;22.97;29.11
75767;BME280;64378;55.596;13.014;2023-04-06T11:38:12;102137.63;;;22.95;28.76
75767;BME280;64378;55.596;13.014;2023-04-06T11:40:37;102140.66;;;22.93;28.99
75767;BME280;64378;55.596;13.014;2023-04-06T11:43:03;102140.91;;;22.92;29.05
75767;BME280;64378;55.596;13.014;2023-04-06T11:45:39;102136.00;;;22.94;28.88
75767;BME280;64378;55.596;13.014;2023-04-06T11:48:04;102134.81;;;22.90;29.21
75767;BME280;64378;55.596;13.014;2023-04-06T11:50:33;102139.47;;;22.89;29.07
75767;BME280;64378;55.596;13.014;2023-04-06T11:53:01;102134.31;;;22.93;29.18
75767;BME280;64378;55.596;13.014;2023-04-06T11:55:27;102143.41;;;22.93;28.99
75767;BME280;64378;55.596;13.014;2023-04-06T11:57:52;102134.31;;;22.93;28.74
75767;BME280;64378;55.596;13.014;2023-04-06T12:00:18;102137.06;;;22.93;29.07
75767;BME280;64378;55.596;13.014;2023-04-06T12:02:47;102135.41;;;22.92;28.86
75767;BME280;64378;55.596;13.014;2023-04-06T12:05:13;102131.56;;;22.93;28.69
75767;BME280;64378;55.596;13.014;2023-04-06T12:07:39;102135.06;;;22.88;28.77
75767;BME280;64378;55.596;13.014;2023-04-06T12:10:05;102129.81;;;22.87;28.62
75767;BME280;64378;55.596;13.014;2023-04-06T12:12:31;102119.88;;;22.86;29.31
75767;BME280;64378;55.596;13.014;2023-04-06T12:14:57;102125.38;;;22.86;29.40
75767;BME280;64378;55.596;13.014;2023-04-06T12:17:22;102124.81;;;22.84;28.76
75767;BME280;64378;55.596;13.014;2023-04-06T12:19:48;102119.31;;;22.84;29.40
75767;BME280;64378;55.596;13.014;2023-04-06T12:22:14;102130.31;;;22.84;29.00
75767;BME280;64378;55.596;13.014;2023-04-06T12:24:39;102129.72;;;22.82;29.48
75767;BME280;64378;55.596;13.014;2023-04-06T12:27:06;102124.22;;;22.82;29.48
75767;BME280;64378;55.596;13.014;2023-04-06T12:29:31;102118.13;;;22.80;29.66
75767;BME280;64378;55.596;13.014;2023-04-06T12:31:57;102126.13;;;22.81;29.66
75767;BME280;64378;55.596;13.014;2023-04-06T12:34:22;102120.63;;;22.81;29.58
75767;BME280;64378;55.596;13.014;2023-04-06T12:36:48;102128.31;;;22.79;29.54
75767;BME280;64378;55.596;13.014;2023-04-06T12:39:13;102126.66;;;22.78;29.33
75767;BME280;64378;55.596;13.014;2023-04-06T12:41:39;102129.63;;;22.77;29.67